KBLU/BLU METAR and TAF weather

Enter ICAO airport designator
Station Type Date Time Source
KBLU METAR 2022/06/27 17:52 UTC NOAA

KBLU 271752Z AUTO 16005KT 10SM CLR 26/M02 A3034 RMK AO2 SLP163 T02561022 10256 20200 51006


Station Type Date Time Source
KBLU Decoded METAR 2022/06/27 17:52 UTC NOAA

BLUE CANYON AIRPORT, CA, United States (KBLU) 39-17N 120-42W 1609M
Jun 27, 2022 - 01:52 PM EDT / 2022.06.27 1752 UTC
Wind: from the SSE (160 degrees) at 6 MPH (5 KT):0
Visibility: 10 mile(s):0
Sky conditions: clear
Temperature: 78.1 F (25.6 C)
Dew Point: 28.0 F (-2.2 C)
Relative Humidity: 15%
Pressure (altimeter): 30.34 in. Hg (1027 hPa)
Pressure tendency: 0.02 inches (0.6 hPa) higher than three hours ago
ob: KBLU 271752Z AUTO 16005KT 10SM CLR 26/M02 A3034 RMK AO2 SLP163 T02561022 10256 20200 51006
cycle: 18

Station Type Date Time Source
KBLU TAF UTC NOAA

Error!

Example: see airport list